Terminal Aerodrome Forecast
Issued by NWS

Home | Current Version | Previous Version | Text Only | Print | Product List | Glossary Off
Versions: 1 2 3 4 5 6 7 8 9 10 11 12 13

000
FTUS43 KICT 011732
TAFHUT
TAF
KHUT 011732Z 0118/0218 25011KT P6SM VCTS BKN090CB
     FM012300 36010KT P6SM SCT100
     FM021200 02010KT P6SM SCT025 BKN100=

USA.gov is the U.S. government's official web portal to all federal, state and local government web resources and services.